Time;durP1;ratioP1;P1;durP2;ratioP2;P2;SDS_P1;SDS_P2;PMS_P1;PMS_P2;Temp;Humidity;BMP_temperature;BMP_pressure;BME280_temperature;BME280_humidity;BME280_pressure;Samples;Min_cycle;Max_cycle;Signal;HPM_P1;HPM_P2
2022/05/16 00:00:26;;;;;;;10.83;10.03;;;;;;;20.08;53.38;94898.97;4763922;30;20207;-79
2022/05/16 00:02:52;;;;;;;9.30;8.43;;;;;;;20.31;53.13;94883.84;4753623;30;20207;-78
2022/05/16 00:05:19;;;;;;;10.30;9.50;;;;;;;20.28;52.82;94890.47;4758486;30;20458;-78
2022/05/16 00:07:45;;;;;;;11.03;10.03;;;;;;;20.11;53.13;94885.22;4748735;30;20433;-80
2022/05/16 00:10:11;;;;;;;10.47;9.47;;;;;;;19.90;53.78;94889.47;4749259;30;20450;-78
2022/05/16 00:12:37;;;;;;;10.60;9.70;;;;;;;19.78;53.65;94884.25;4733255;30;20446;-78
2022/05/16 00:15:05;;;;;;;10.33;9.47;;;;;;;19.88;53.47;94884.41;4761316;30;20204;-79
2022/05/16 00:17:31;;;;;;;9.70;8.90;;;;;;;19.89;53.50;94888.66;4741185;30;20449;-79
2022/05/16 00:19:56;;;;;;;10.00;9.20;;;;;;;20.02;53.13;94879.53;4740131;30;20838;-79
2022/05/16 00:22:24;;;;;;;9.87;9.17;;;;;;;20.01;52.56;94880.56;4766595;30;20213;-79
2022/05/16 00:24:49;;;;;;;9.47;8.70;;;;;;;20.01;52.80;94877.09;4757153;30;20208;-79
2022/05/16 00:27:14;;;;;;;10.70;9.90;;;;;;;19.95;52.51;94878.91;4748828;30;20437;-79
2022/05/16 00:29:40;;;;;;;8.90;8.20;;;;;;;19.84;52.68;94877.16;4748020;30;20243;-79
2022/05/16 00:32:07;;;;;;;9.50;8.73;;;;;;;19.81;52.89;94880.31;4752606;30;20214;-79
2022/05/16 00:34:32;;;;;;;9.83;9.10;;;;;;;19.69;53.23;94878.56;4748497;30;20204;-78
2022/05/16 00:36:58;;;;;;;8.93;8.17;;;;;;;19.79;52.75;94877.91;4723031;30;20464;-78
2022/05/16 00:39:23;;;;;;;10.40;9.53;;;;;;;20.27;51.48;94872.88;4755739;30;20200;-78
2022/05/16 00:41:50;;;;;;;9.23;8.43;;;;;;;19.97;52.31;94882.09;4756644;30;20275;-78
2022/05/16 00:44:18;;;;;;;9.43;8.53;;;;;;;19.91;52.62;94875.13;4765758;30;20229;-78
2022/05/16 00:46:45;;;;;;;8.43;7.73;;;;;;;20.11;51.53;94868.44;4765913;30;20469;-78
2022/05/16 00:49:28;;;;;;;10.03;9.33;;;;;;;19.82;52.62;94873.94;4766226;30;20466;-79
2022/05/16 00:52:04;;;;;;;8.30;7.60;;;;;;;19.82;52.19;94876.59;4762252;30;21072;-79
2022/05/16 00:54:40;;;;;;;8.87;8.00;;;;;;;19.98;51.82;94870.44;4760857;30;20481;-79
2022/05/16 00:57:14;;;;;;;8.73;8.10;;;;;;;19.97;51.82;94870.69;4764731;30;20453;-79
2022/05/16 00:59:57;;;;;;;9.73;8.83;;;;;;;19.91;51.85;94869.81;4765100;30;20454;-78
2022/05/16 01:05:10;;;;;;;11.37;10.27;;;;;;;19.93;52.19;94878.34;4747788;30;20449;-78
2022/05/16 01:07:41;;;;;;;9.53;8.70;;;;;;;19.61;52.69;94873.66;4747793;30;20449;-78
2022/05/16 01:10:08;;;;;;;9.30;8.60;;;;;;;19.84;52.54;94867.38;4757094;30;20459;-78
2022/05/16 01:12:37;;;;;;;10.87;8.90;;;;;;;19.76;53.28;94870.44;4761814;30;20431;-79
2022/05/16 01:15:09;;;;;;;9.27;8.57;;;;;;;19.95;52.39;94862.16;4748147;30;20533;-79
2022/05/16 01:17:35;;;;;;;9.87;9.00;;;;;;;19.84;52.60;94864.69;4750145;30;20446;-78
2022/05/16 01:20:01;;;;;;;10.00;8.90;;;;;;;19.87;52.43;94871.38;4761293;30;20453;-79
2022/05/16 01:22:38;;;;;;;10.27;9.33;;;;;;;19.83;52.66;94863.09;4756239;30;20215;-80
2022/05/16 01:25:11;;;;;;;9.17;8.20;;;;;;;19.80;52.45;94863.56;4765771;30;20206;-79
2022/05/16 01:27:40;;;;;;;10.37;9.60;;;;;;;19.54;53.65;94859.78;4755147;30;20529;-78
2022/05/16 01:30:07;;;;;;;9.83;9.13;;;;;;;19.46;54.26;94862.81;4763979;30;20504;-78
2022/05/16 01:32:32;;;;;;;10.00;9.10;;;;;;;19.55;53.71;94861.38;4765243;30;20434;-78
2022/05/16 01:34:58;;;;;;;10.50;9.80;;;;;;;19.52;53.55;94875.16;4761569;30;20492;-79
2022/05/16 01:38:18;;;;;;;9.40;8.70;;;;;;;19.91;52.63;94863.72;4760799;30;20222;-77
2022/05/16 01:40:09;;;;;;;9.73;9.03;;;;;;;19.30;53.83;94867.91;4761418;30;20198;-78
2022/05/16 01:42:34;;;;;;;10.00;9.10;;;;;;;18.81;55.54;94867.69;4765075;30;20473;-78
2022/05/16 01:45:00;;;;;;;9.00;8.30;;;;;;;19.23;54.01;94869.94;4765080;30;20445;-78
2022/05/16 01:47:26;;;;;;;9.73;8.87;;;;;;;19.33;53.84;94873.78;4763293;30;20207;-78
2022/05/16 01:49:51;;;;;;;11.00;9.20;;;;;;;19.22;53.65;94881.59;4772597;30;20233;-78
2022/05/16 01:52:16;;;;;;;8.70;8.07;;;;;;;19.09;53.64;94873.97;4782922;30;20220;-78
2022/05/16 01:54:42;;;;;;;9.07;8.37;;;;;;;19.19;53.77;94876.78;4766227;30;20203;-78
2022/05/16 01:57:07;;;;;;;8.73;7.90;;;;;;;19.39;52.68;94872.81;4764802;30;20225;-79
2022/05/16 01:59:33;;;;;;;8.53;7.80;;;;;;;19.30;53.03;94878.53;4764944;30;20199;-79
2022/05/16 02:01:58;;;;;;;8.37;7.77;;;;;;;19.30;53.25;94870.56;4764694;30;20293;-78
2022/05/16 02:04:24;;;;;;;10.70;8.50;;;;;;;19.09;53.91;94872.13;4749575;30;20200;-78
2022/05/16 02:06:49;;;;;;;9.13;8.33;;;;;;;19.22;53.96;94881.59;4764757;30;20203;-79
2022/05/16 02:09:14;;;;;;;9.10;8.50;;;;;;;19.19;53.75;94884.72;4764652;30;20214;-79
2022/05/16 02:11:41;;;;;;;9.57;8.57;;;;;;;19.21;53.42;94877.34;4764486;30;20200;-78
2022/05/16 02:14:06;;;;;;;8.30;7.60;;;;;;;19.41;52.80;94878.69;4747916;30;20272;-79
2022/05/16 02:16:31;;;;;;;9.07;8.43;;;;;;;19.05;53.73;94886.13;4764789;30;20433;-77
2022/05/16 02:18:57;;;;;;;8.10;7.40;;;;;;;18.71;54.25;94884.22;4747215;30;20211;-78
2022/05/16 02:27:01;;;;;;;9.80;9.00;;;;;;;18.99;53.83;94881.75;4749925;30;20480;-77
2022/05/16 02:29:26;;;;;;;9.23;8.43;;;;;;;18.95;53.77;94877.97;4746634;30;20585;-79
2022/05/16 02:31:52;;;;;;;9.40;8.70;;;;;;;18.94;54.11;94879.03;4764141;30;20195;-78
2022/05/16 02:34:17;;;;;;;10.13;9.30;;;;;;;18.75;54.69;94879.22;4759623;30;20203;-78
2022/05/16 02:36:43;;;;;;;9.47;8.77;;;;;;;18.78;54.75;94884.06;4746654;30;20212;-78
2022/05/16 02:39:10;;;;;;;9.43;8.53;;;;;;;18.81;54.71;94872.19;4746611;30;20207;-79
2022/05/16 02:41:35;;;;;;;11.00;10.07;;;;;;;18.82;54.58;94881.75;4746434;30;20550;-78
2022/05/16 02:44:00;;;;;;;10.90;9.43;;;;;;;18.85;54.58;94875.97;4749692;30;20540;-79
2022/05/16 02:46:26;;;;;;;10.07;9.03;;;;;;;19.09;53.79;94866.81;4763949;30;20231;-78
2022/05/16 02:48:51;;;;;;;9.80;8.87;;;;;;;19.06;54.20;94869.13;4730675;30;20200;-78
2022/05/16 02:51:17;;;;;;;9.47;8.77;;;;;;;18.97;53.91;94866.09;4755489;30;20269;-78
2022/05/16 02:53:42;;;;;;;10.33;9.43;;;;;;;19.10;53.85;94870.25;4746448;30;20188;-79
2022/05/16 02:56:08;;;;;;;10.30;8.47;;;;;;;18.79;54.68;94877.69;4758492;30;20683;-79
2022/05/16 02:58:33;;;;;;;9.40;8.70;;;;;;;19.21;53.38;94877.34;4746401;30;20279;-78
2022/05/16 03:00:59;;;;;;;10.20;9.33;;;;;;;19.27;53.32;94876.38;4746309;30;20553;-78
2022/05/16 03:03:24;;;;;;;11.37;10.23;;;;;;;18.42;56.02;94878.13;4746303;30;20192;-79
2022/05/16 03:05:50;;;;;;;11.67;10.70;;;;;;;18.88;54.83;94878.16;4760102;30;20229;-78
2022/05/16 03:08:15;;;;;;;11.90;10.80;;;;;;;18.79;54.72;94876.91;4763342;30;20207;-78
2022/05/16 03:10:41;;;;;;;11.27;10.27;;;;;;;18.61;55.69;94875.25;4763942;30;20191;-77
2022/05/16 03:13:06;;;;;;;11.07;10.07;;;;;;;18.76;55.24;94877.38;4744438;30;20200;-77
2022/05/16 03:15:32;;;;;;;11.80;10.67;;;;;;;18.64;55.43;94872.94;4735598;30;20191;-79
2022/05/16 03:17:58;;;;;;;11.90;10.70;;;;;;;18.77;55.42;94877.13;4746668;30;20211;-79
2022/05/16 03:20:24;;;;;;;11.53;10.53;;;;;;;18.75;55.16;94879.22;4752226;30;20200;-78
2022/05/16 03:22:50;;;;;;;12.37;11.33;;;;;;;18.71;55.08;94880.75;4767043;30;20492;-78
2022/05/16 03:25:15;;;;;;;12.90;11.43;;;;;;;18.79;55.38;94887.50;4767315;30;20469;-76
2022/05/16 03:27:41;;;;;;;12.57;11.43;;;;;;;18.60;56.14;94894.88;4767514;30;20322;-78
2022/05/16 03:30:09;;;;;;;13.00;11.83;;;;;;;18.73;55.82;94897.22;4763107;30;20203;-78
2022/05/16 03:32:35;;;;;;;13.23;12.10;;;;;;;18.98;55.16;94899.53;4767469;30;20217;-79
2022/05/16 03:35:01;;;;;;;12.63;11.27;;;;;;;18.56;56.43;94904.34;4763456;30;20449;-78
2022/05/16 03:37:26;;;;;;;11.73;10.53;;;;;;;18.57;56.18;94903.28;4734154;30;20207;-78
2022/05/16 03:42:35;;;;;;;12.23;11.23;;;;;;;18.21;56.92;94915.88;4749557;30;20262;-78
2022/05/16 03:45:02;;;;;;;12.20;11.00;;;;;;;18.48;55.95;94911.63;4747476;30;20457;-78
2022/05/16 03:47:28;;;;;;;12.33;10.70;;;;;;;18.77;55.47;94916.91;4760741;30;20204;-79
2022/05/16 03:49:53;;;;;;;11.90;10.80;;;;;;;18.70;55.75;94926.84;4749473;30;21020;-79
2022/05/16 03:52:19;;;;;;;11.40;10.20;;;;;;;18.84;55.27;94920.25;4757993;30;20627;-79
2022/05/16 03:54:44;;;;;;;10.93;10.13;;;;;;;18.91;55.22;94920.09;4763696;30;20198;-78
2022/05/16 03:57:10;;;;;;;11.00;10.10;;;;;;;19.13;54.54;94922.84;4754852;30;20644;-78
2022/05/16 03:59:35;;;;;;;11.03;10.10;;;;;;;19.19;54.46;94923.72;4760949;30;20218;-79
2022/05/16 04:02:01;;;;;;;13.20;12.10;;;;;;;19.33;54.10;94926.84;4765140;30;20306;-78
2022/05/16 04:04:27;;;;;;;15.13;12.17;;;;;;;19.29;53.68;94932.69;4749544;30;20210;-78
2022/05/16 04:06:52;;;;;;;12.60;11.50;;;;;;;19.03;54.39;94930.66;4766037;30;20210;-78
2022/05/16 04:09:18;;;;;;;12.53;11.33;;;;;;;18.61;56.06;94930.94;4749061;30;20294;-78
2022/05/16 04:11:44;;;;;;;13.40;12.20;;;;;;;18.34;56.46;94940.28;4764892;30;20215;-78
2022/05/16 04:14:09;;;;;;;12.77;11.57;;;;;;;18.38;56.10;94939.78;4748154;30;20206;-79
2022/05/16 04:16:37;;;;;;;11.90;10.90;;;;;;;18.98;54.76;94941.16;4732572;30;20207;-78
2022/05/16 04:19:03;;;;;;;12.70;11.63;;;;;;;18.40;55.90;94948.28;4763469;30;20217;-78
2022/05/16 04:21:28;;;;;;;13.37;12.17;;;;;;;18.57;55.60;94946.50;4755237;30;20503;-79
2022/05/16 04:23:54;;;;;;;14.20;12.90;;;;;;;17.90;57.03;94947.03;4770297;30;20544;-78
2022/05/16 04:26:19;;;;;;;15.90;14.40;;;;;;;18.29;56.76;94949.97;4770900;30;20245;-78
2022/05/16 04:28:45;;;;;;;16.43;14.97;;;;;;;18.12;56.96;94948.03;4769816;30;20191;-78
2022/05/16 04:31:10;;;;;;;16.63;15.03;;;;;;;18.57;56.23;94951.00;4772895;30;20221;-79
2022/05/16 04:33:36;;;;;;;20.90;18.50;;;;;;;18.78;55.91;94950.34;4758691;30;20191;-78
2022/05/16 04:36:01;;;;;;;21.50;17.27;;;;;;;19.18;54.74;94946.81;4770429;30;20195;-78
2022/05/16 04:38:27;;;;;;;18.53;16.80;;;;;;;19.44;54.26;94945.34;4770641;30;20229;-80
2022/05/16 04:43:37;;;;;;;20.70;18.87;;;;;;;19.14;54.34;94961.59;4768648;30;20513;-79
2022/05/16 04:46:07;;;;;;;18.93;16.50;;;;;;;18.82;55.73;94948.88;4772843;30;20445;-79
2022/05/16 04:48:33;;;;;;;19.17;17.27;;;;;;;19.43;54.28;94951.72;4771396;30;20278;-78
2022/05/16 04:50:58;;;;;;;21.00;19.20;;;;;;;18.97;55.71;94952.81;4781070;30;20494;-79
2022/05/16 04:53:24;;;;;;;24.10;21.73;;;;;;;19.43;54.80;94956.22;4766046;30;20501;-79
2022/05/16 04:55:50;;;;;;;27.73;25.40;;;;;;;19.61;54.26;94961.28;4771143;30;20228;-79
2022/05/16 04:58:16;;;;;;;28.47;25.57;;;;;;;19.63;54.50;94964.47;4782843;30;20440;-78
2022/05/16 05:00:41;;;;;;;27.60;25.10;;;;;;;19.95;53.30;94960.47;4776812;30;20225;-79
2022/05/16 05:03:07;;;;;;;31.10;28.40;;;;;;;19.48;54.32;94957.13;4783388;30;20268;-80
2022/05/16 05:05:35;;;;;;;28.93;26.37;;;;;;;19.53;54.12;94964.34;4768493;30;20214;-78
2022/05/16 05:08:01;;;;;;;31.90;28.63;;;;;;;20.32;51.99;94967.81;4780429;30;20456;-79
2022/05/16 05:16:09;;;;;;;31.93;28.93;;;;;;;20.74;51.07;94976.06;4765521;30;20480;-79
2022/05/16 05:18:35;;;;;;;32.27;28.30;;;;;;;20.70;51.32;94972.31;4792396;29;20511;-78
2022/05/16 05:21:01;;;;;;;29.30;26.60;;;;;;;20.74;51.20;94984.03;4793558;30;20460;-79
2022/05/16 05:23:26;;;;;;;30.70;27.80;;;;;;;20.15;52.80;94981.19;4782371;30;20455;-80
2022/05/16 05:25:52;;;;;;;32.33;28.83;;;;;;;20.23;52.67;94978.91;4764375;30;20633;-79
2022/05/16 05:28:17;;;;;;;27.73;25.30;;;;;;;20.77;51.38;94983.56;4783210;30;20845;-80
2022/05/16 05:30:43;;;;;;;25.27;22.77;;;;;;;20.86;50.65;94981.25;4775344;30;20209;-79
2022/05/16 05:33:08;;;;;;;24.70;22.50;;;;;;;20.70;51.56;94990.91;4782936;30;20205;-79
2022/05/16 05:35:34;;;;;;;26.27;22.10;;;;;;;21.19;50.09;94988.22;4766562;30;20198;-79
2022/05/16 05:37:59;;;;;;;26.60;21.53;;;;;;;21.52;49.22;94978.41;4777198;30;20202;-79
2022/05/16 05:40:24;;;;;;;22.77;20.70;;;;;;;21.65;49.27;94977.19;4777684;30;20305;-79
2022/05/16 05:42:50;;;;;;;23.60;21.60;;;;;;;21.79;48.75;94988.19;4782721;30;20222;-79
2022/05/16 05:45:17;;;;;;;22.67;20.47;;;;;;;21.88;48.74;94997.31;4782527;30;20209;-80
2022/05/16 05:47:42;;;;;;;21.13;19.10;;;;;;;22.36;47.49;94987.47;4781844;30;20262;-79
2022/05/16 05:50:08;;;;;;;20.87;18.73;;;;;;;22.16;47.19;94985.47;4757977;30;20546;-80
2022/05/16 05:52:34;;;;;;;20.20;18.30;;;;;;;22.23;47.70;94978.06;4757023;30;20250;-80
2022/05/16 05:55:00;;;;;;;20.60;18.50;;;;;;;21.79;48.51;94988.19;4757308;30;20499;-79
2022/05/16 05:57:27;;;;;;;20.33;18.73;;;;;;;22.70;46.67;94987.06;4762261;30;20433;-79
2022/05/16 05:59:53;;;;;;;20.53;18.40;;;;;;;23.04;45.95;94985.84;4759062;30;20691;-80
2022/05/16 06:02:19;;;;;;;20.03;18.13;;;;;;;22.87;46.40;94980.72;4762026;30;20481;-80
2022/05/16 06:04:45;;;;;;;21.10;19.10;;;;;;;23.06;45.64;94983.72;4761922;30;20456;-79
2022/05/16 06:07:11;;;;;;;19.53;17.53;;;;;;;23.65;44.51;94980.53;4760061;30;20195;-79
2022/05/16 06:09:36;;;;;;;18.33;16.60;;;;;;;23.25;45.50;94981.34;4762940;30;20734;-80
2022/05/16 06:12:05;;;;;;;19.93;18.20;;;;;;;23.28;44.51;94986.97;4741372;30;20453;-79
2022/05/16 06:14:31;;;;;;;22.67;19.13;;;;;;;22.52;46.65;94984.84;4758650;30;20448;-78
2022/05/16 06:16:57;;;;;;;18.90;17.13;;;;;;;22.86;46.19;94989.78;4764564;30;20446;-79
2022/05/16 06:19:26;;;;;;;18.93;17.30;;;;;;;22.89;45.98;94978.59;4761817;30;20524;-79
2022/05/16 06:21:51;;;;;;;22.87;20.70;;;;;;;23.34;44.96;94985.88;4763092;30;20223;-79
2022/05/16 06:27:02;;;;;;;20.03;17.97;;;;;;;23.61;44.13;94984.03;4759545;30;20207;-79
2022/05/16 06:29:28;;;;;;;20.73;18.50;;;;;;;23.86;43.42;94980.56;4759192;30;20445;-79
2022/05/16 06:31:54;;;;;;;19.23;17.27;;;;;;;24.40;42.30;94979.06;4758742;30;20453;-78
2022/05/16 06:34:19;;;;;;;21.77;18.27;;;;;;;23.79;43.62;94978.19;4754670;30;20438;-79
2022/05/16 06:36:46;;;;;;;19.43;17.53;;;;;;;23.84;43.60;94985.38;4764366;30;20603;-79
2022/05/16 06:39:11;;;;;;;20.47;17.57;;;;;;;24.28;42.92;94988.22;4763506;30;20664;-79
2022/05/16 06:41:37;;;;;;;19.57;17.63;;;;;;;23.78;43.40;94981.88;4748334;30;20485;-79
2022/05/16 06:44:03;;;;;;;19.20;17.30;;;;;;;23.41;44.23;94984.81;4747927;30;20206;-79
2022/05/16 06:46:28;;;;;;;22.47;18.27;;;;;;;24.08;42.95;94983.72;4762571;30;20592;-79
2022/05/16 06:48:54;;;;;;;17.80;16.10;;;;;;;24.41;42.17;94984.16;4756939;30;20361;-79
2022/05/16 06:51:20;;;;;;;20.73;18.27;;;;;;;23.96;42.77;94992.03;4762615;30;20334;-79
2022/05/16 06:53:45;;;;;;;20.40;18.30;;;;;;;25.00;40.89;94981.78;4764248;30;20192;-79
2022/05/16 06:56:10;;;;;;;19.20;17.63;;;;;;;25.16;40.84;94982.50;4762068;30;20212;-79
2022/05/16 06:58:36;;;;;;;23.23;17.23;;;;;;;25.24;40.27;94979.25;4762284;30;20199;-79
2022/05/16 07:01:02;;;;;;;27.57;17.60;;;;;;;24.66;41.46;94977.94;4764126;30;20207;-79
2022/05/16 07:03:27;;;;;;;17.40;15.90;;;;;;;25.23;40.02;94983.81;4742511;30;20191;-79
2022/05/16 07:05:53;;;;;;;18.27;16.50;;;;;;;25.47;39.87;94986.56;4759426;30;20202;-79
2022/05/16 07:08:20;;;;;;;18.23;16.33;;;;;;;25.63;39.84;94983.75;4758946;30;20237;-79
2022/05/16 07:10:48;;;;;;;19.03;15.07;;;;;;;25.31;39.81;94977.06;4759177;30;20187;-79
2022/05/16 07:13:16;;;;;;;14.60;12.20;;;;;;;25.11;38.80;94973.41;4763067;30;20455;-79
2022/05/16 07:15:45;;;;;;;12.87;11.30;;;;;;;25.09;38.49;94970.19;4764513;30;20960;-79
2022/05/16 07:18:12;;;;;;;11.00;9.77;;;;;;;25.39;37.16;94971.09;4734991;30;20970;-79
2022/05/16 07:20:38;;;;;;;10.60;9.53;;;;;;;24.74;37.85;94973.91;4758139;30;20473;-79
2022/05/16 07:23:05;;;;;;;12.90;10.33;;;;;;;24.24;38.34;94981.81;4738375;30;20489;-79
2022/05/16 07:27:56;;;;;;;10.33;9.03;;;;;;;25.17;36.58;94970.69;4753144;30;20539;-79
2022/05/16 07:28:16;;;;;;;11.77;9.97;;;;;;;25.35;36.46;94972.75;4756371;30;20443;-79
2022/05/16 07:30:42;;;;;;;11.53;10.50;;;;;;;24.78;38.38;94972.28;4761317;30;20509;-80
2022/05/16 07:33:07;;;;;;;11.30;10.30;;;;;;;25.15;38.01;94973.66;4755371;30;20196;-80
2022/05/16 07:35:33;;;;;;;12.37;10.90;;;;;;;25.90;36.77;94978.69;4750406;30;20213;-80
2022/05/16 07:37:59;;;;;;;13.17;11.90;;;;;;;25.63;37.42;94967.69;4752090;30;20208;-79
2022/05/16 07:40:31;;;;;;;17.20;12.03;;;;;;;26.17;36.72;94971.22;4743878;30;20517;-79
2022/05/16 07:42:56;;;;;;;20.63;11.20;;;;;;;26.04;36.98;94961.97;4757641;30;20529;-80
2022/05/16 07:45:23;;;;;;;10.80;8.90;;;;;;;25.99;35.83;94970.06;4753898;30;20457;-78
2022/05/16 07:47:49;;;;;;;15.43;8.97;;;;;;;26.77;34.43;94962.75;4743360;30;20200;-79
2022/05/16 07:50:14;;;;;;;10.17;9.27;;;;;;;25.67;37.12;94966.06;4762153;30;20485;-79
2022/05/16 07:52:45;;;;;;;14.23;9.90;;;;;;;26.47;35.93;94965.50;4764046;30;20191;-80
2022/05/16 07:55:10;;;;;;;13.77;10.13;;;;;;;26.82;34.55;94965.38;4767475;30;20192;-79
2022/05/16 07:57:36;;;;;;;13.73;10.20;;;;;;;26.11;36.25;94967.81;4767261;30;21372;-79
2022/05/16 08:00:03;;;;;;;11.67;9.93;;;;;;;26.60;35.30;94968.63;4760322;30;20199;-79
2022/05/16 08:02:28;;;;;;;11.43;10.33;;;;;;;26.79;35.26;94965.97;4749948;30;20222;-79
2022/05/16 08:04:54;;;;;;;7.53;6.93;;;;;;;26.25;34.47;94965.22;4770014;30;20503;-79
2022/05/16 08:07:19;;;;;;;29.30;8.10;;;;;;;26.16;32.81;94965.06;4767067;30;20257;-79
2022/05/16 08:12:32;;;;;;;17.57;6.77;;;;;;;25.94;33.33;94962.09;4759148;30;20281;-80
2022/05/16 08:14:58;;;;;;;16.13;6.87;;;;;;;26.08;34.26;94960.31;4762879;30;20460;-80
2022/05/16 08:17:23;;;;;;;15.10;6.60;;;;;;;25.79;31.49;94961.09;4752886;30;20501;-80
2022/05/16 08:19:49;;;;;;;4.90;4.50;;;;;;;25.61;31.15;94956.44;4760325;30;20263;-79
2022/05/16 08:22:17;;;;;;;4.83;4.30;;;;;;;25.31;32.47;94953.75;4761709;30;20215;-80
2022/05/16 08:24:43;;;;;;;6.63;5.20;;;;;;;26.23;31.61;94953.97;4762472;30;20199;-80
2022/05/16 08:27:09;;;;;;;8.67;5.10;;;;;;;26.52;31.34;94964.63;4764094;30;20447;-80
2022/05/16 08:29:34;;;;;;;4.50;4.00;;;;;;;26.37;30.30;94959.47;4756956;30;20218;-80
2022/05/16 08:32:01;;;;;;;3.90;3.60;;;;;;;26.32;29.93;94963.00;4754612;30;20194;-80
2022/05/16 08:34:27;;;;;;;3.67;3.33;;;;;;;26.10;28.36;94955.47;4764000;30;20553;-79
2022/05/16 08:39:52;;;;;;;8.50;3.40;;;;;;;27.25;27.33;94951.91;4766626;30;20248;-79
2022/05/16 08:42:30;;;;;;;6.47;3.33;;;;;;;27.13;26.42;94943.44;4766564;30;20589;-79
2022/05/16 08:45:03;;;;;;;2.53;2.33;;;;;;;27.96;25.38;94938.38;4746201;30;20476;-79
2022/05/16 08:47:50;;;;;;;2.77;2.57;;;;;;;28.49;24.24;94940.56;4743610;30;20439;-79
2022/05/16 08:50:21;;;;;;;9.63;3.33;;;;;;;28.11;24.13;94939.97;4758475;30;20482;-79
2022/05/16 08:52:53;;;;;;;2.60;1.90;;;;;;;28.04;22.31;94937.69;4762536;30;20439;-79
2022/05/16 08:55:30;;;;;;;1.73;1.63;;;;;;;27.70;22.93;94929.91;4762769;30;20450;-79
2022/05/16 08:58:09;;;;;;;2.97;2.10;;;;;;;27.57;22.57;94931.50;4764091;30;20514;-79
2022/05/16 09:00:52;;;;;;;5.27;2.17;;;;;;;27.22;23.21;94941.69;4756044;30;20440;-79
2022/05/16 09:03:23;;;;;;;2.30;2.10;;;;;;;27.85;22.53;94940.44;4769388;30;20507;-80
2022/05/16 09:05:55;;;;;;;2.03;1.83;;;;;;;28.07;22.07;94942.47;4746533;30;20834;-80
2022/05/16 09:08:39;;;;;;;5.03;2.00;;;;;;;27.68;22.35;94935.63;4757897;30;20426;-79
2022/05/16 09:11:14;;;;;;;2.57;2.20;;;;;;;28.04;22.72;94935.00;4760493;30;20927;-79
2022/05/16 09:13:49;;;;;;;2.90;2.50;;;;;;;27.57;22.54;94928.81;4758891;30;20457;-79
2022/05/16 09:16:40;;;;;;;3.27;2.03;;;;;;;28.07;21.68;94937.09;4745761;30;20433;-80
2022/05/16 09:19:52;;;;;;;3.83;3.20;;;;;;;27.16;23.95;94932.13;4761945;30;20449;-80
2022/05/16 09:22:39;;;;;;;2.90;2.40;;;;;;;28.05;21.52;94925.81;4761776;30;20545;-80
2022/05/16 09:25:19;;;;;;;2.37;2.17;;;;;;;28.02;22.08;94926.41;4739385;30;20445;-80
2022/05/16 09:28:52;;;;;;;2.33;2.13;;;;;;;29.10;21.56;94918.81;4754536;30;20493;-81
2022/05/16 09:30:48;;;;;;;5.60;2.00;;;;;;;28.19;21.82;94923.94;4744725;30;20448;-81
2022/05/16 09:33:26;;;;;;;2.63;2.10;;;;;;;29.29;20.75;94919.47;4762286;30;20453;-81
2022/05/16 09:36:05;;;;;;;3.60;2.23;;;;;;;29.55;20.76;94911.53;4761469;30;20474;-81
2022/05/16 09:38:31;;;;;;;4.53;2.33;;;;;;;29.26;21.81;94908.50;4768490;30;20521;-80
2022/05/16 09:41:07;;;;;;;2.43;2.20;;;;;;;28.36;22.97;94909.88;4755663;30;20530;-81
2022/05/16 09:44:20;;;;;;;3.43;2.07;;;;;;;28.63;21.58;94913.66;4761214;30;20452;-80
2022/05/16 09:46:46;;;;;;;3.57;2.13;;;;;;;28.48;21.35;94906.66;4737135;30;20442;-81
2022/05/16 09:49:14;;;;;;;3.00;2.07;;;;;;;28.69;21.16;94907.06;4754082;30;20455;-81
2022/05/16 09:52:13;;;;;;;2.60;1.97;;;;;;;28.74;20.89;94904.25;4759510;30;20486;-80
2022/05/16 09:54:40;;;;;;;4.63;2.27;;;;;;;29.31;20.83;94894.88;4764292;30;20449;-80
2022/05/16 09:57:20;;;;;;;3.33;2.30;;;;;;;29.88;20.91;94899.66;4749033;30;20438;-81
2022/05/16 09:59:52;;;;;;;2.33;2.13;;;;;;;30.22;20.25;94895.50;4749199;30;20457;-81
2022/05/16 10:02:36;;;;;;;4.70;2.30;;;;;;;30.73;20.16;94889.47;4740659;30;20472;-81
2022/05/16 10:05:19;;;;;;;7.37;2.60;;;;;;;28.58;21.33;94878.75;4762256;30;21333;-81
2022/05/16 10:07:49;;;;;;;6.03;2.93;;;;;;;28.42;22.64;94875.56;4762343;30;20475;-80
2022/05/16 10:10:20;;;;;;;9.63;3.37;;;;;;;28.96;22.72;94881.91;4747864;30;20946;-80
2022/05/16 10:12:48;;;;;;;5.57;2.70;;;;;;;29.57;22.19;94876.16;4752506;30;20422;-80
2022/05/16 10:15:13;;;;;;;9.47;2.33;;;;;;;28.60;22.84;94866.56;4761270;30;21011;-81
2022/05/16 10:17:42;;;;;;;19.00;4.20;;;;;;;29.06;22.49;94872.00;4750178;30;20464;-80
2022/05/16 10:20:15;;;;;;;2.53;2.30;;;;;;;29.37;22.52;94862.09;4757649;30;20203;-80
2022/05/16 10:22:41;;;;;;;2.23;2.03;;;;;;;30.40;21.38;94864.78;4753652;30;20510;-79
2022/05/16 10:25:13;;;;;;;5.97;2.80;;;;;;;29.87;21.82;94860.31;4764387;30;20466;-80
2022/05/16 10:27:39;;;;;;;2.80;2.10;;;;;;;28.72;23.39;94860.66;4760996;30;20439;-80
2022/05/16 10:30:21;;;;;;;2.40;2.30;;;;;;;29.25;22.78;94858.38;4764879;30;20463;-79
2022/05/16 10:35:48;;;;;;;13.53;3.47;;;;;;;29.45;23.34;94847.06;4763528;30;20465;-80
2022/05/16 10:38:52;;;;;;;20.83;4.93;;;;;;;29.92;22.35;94843.97;4764201;30;20481;-81
2022/05/16 10:41:27;;;;;;;12.03;3.63;;;;;;;30.04;22.40;94840.69;4758246;30;20447;-80
2022/05/16 10:44:00;;;;;;;13.27;2.70;;;;;;;29.97;22.51;94830.31;4756730;30;20440;-81
2022/05/16 10:46:31;;;;;;;5.23;2.13;;;;;;;30.23;22.00;94846.59;4758298;30;20432;-80
2022/05/16 10:49:03;;;;;;;4.50;2.17;;;;;;;30.10;21.92;94839.41;4746631;30;20487;-80
2022/05/16 10:51:46;;;;;;;2.27;2.17;;;;;;;29.43;22.81;94830.41;4765090;30;20540;-79
2022/05/16 10:54:18;;;;;;;3.90;3.23;;;;;;;30.12;22.53;94832.59;4748365;30;20570;-80
2022/05/16 10:56:53;;;;;;;2.23;1.93;;;;;;;29.98;22.59;94831.94;4748503;30;20439;-80
2022/05/16 10:59:42;;;;;;;3.70;2.50;;;;;;;30.09;22.53;94814.34;4756997;30;20466;-80
2022/05/16 11:02:35;;;;;;;5.17;2.20;;;;;;;29.65;23.14;94823.34;4756204;30;20483;-81
2022/05/16 11:05:32;;;;;;;3.47;2.97;;;;;;;28.89;23.47;94819.56;4746830;30;21050;-80
2022/05/16 11:08:32;;;;;;;2.67;2.47;;;;;;;28.74;23.47;94807.28;4743447;30;20454;-80
2022/05/16 11:11:16;;;;;;;33.80;5.17;;;;;;;29.66;22.88;94814.16;4758495;30;20519;-79
2022/05/16 11:13:44;;;;;;;2.20;1.97;;;;;;;28.90;23.02;94815.00;4755604;30;20511;-79
2022/05/16 11:16:24;;;;;;;5.00;2.60;;;;;;;29.33;23.39;94811.78;4764168;30;20458;-79
2022/05/16 11:19:07;;;;;;;9.23;3.03;;;;;;;28.76;24.01;94813.16;4730724;30;20445;-79
2022/05/16 11:22:21;;;;;;;2.50;1.83;;;;;;;28.66;23.21;94794.53;4749835;30;20492;-79
2022/05/16 11:25:00;;;;;;;3.70;2.27;;;;;;;28.98;22.46;94816.94;4728230;30;20458;-79
2022/05/16 11:27:56;;;;;;;5.13;2.17;;;;;;;29.22;22.74;94813.97;4743582;30;20452;-79
2022/05/16 11:30:28;;;;;;;4.80;2.33;;;;;;;29.95;21.60;94810.94;4746471;30;20499;-79
2022/05/16 11:33:10;;;;;;;3.83;2.03;;;;;;;29.50;22.16;94805.66;4763838;30;20436;-79
2022/05/16 11:35:39;;;;;;;3.03;2.60;;;;;;;29.28;22.80;94804.63;4764178;30;20900;-79
2022/05/16 11:38:23;;;;;;;7.97;2.30;;;;;;;29.75;22.63;94802.31;4764866;30;20471;-79
2022/05/16 11:41:26;;;;;;;2.30;2.10;;;;;;;30.33;21.45;94810.41;4756684;30;20483;-78
2022/05/16 11:44:10;;;;;;;7.50;2.40;;;;;;;30.39;21.47;94798.34;4761852;30;20441;-80
2022/05/16 11:46:57;;;;;;;9.17;3.00;;;;;;;29.94;21.33;94771.59;4761624;30;20433;-79
2022/05/16 11:49:31;;;;;;;9.10;2.80;;;;;;;30.96;20.06;94793.91;4762334;30;20444;-81
2022/05/16 11:52:00;;;;;;;1.90;1.77;;;;;;;30.48;19.97;94782.94;4766555;30;20969;-79
2022/05/16 11:54:44;;;;;;;5.73;2.13;;;;;;;31.86;19.19;94788.41;4756546;30;20968;-80
2022/05/16 12:03:16;;;;;;;8.67;2.30;;;;;;;31.38;19.17;94772.50;4727684;30;20473;-79
2022/05/16 12:06:03;;;;;;;2.20;2.00;;;;;;;31.76;18.18;94782.56;4764695;30;20436;-80
2022/05/16 12:08:31;;;;;;;4.33;2.03;;;;;;;31.79;18.79;94765.66;4758548;30;20522;-79
2022/05/16 12:11:03;;;;;;;6.10;2.23;;;;;;;32.57;18.04;94758.97;4752246;30;20461;-80
2022/05/16 12:13:34;;;;;;;2.33;1.97;;;;;;;33.38;17.70;94764.91;4770013;30;20434;-79
2022/05/16 12:16:14;;;;;;;3.33;1.50;;;;;;;33.71;17.39;94758.63;4761913;30;20444;-80